Charlevoix, MI

8:20 PM EST on February 09, 2016 (GMT -0500)
1.5 W Ironton | | Change Station
CLOSE
Current Station
Personal Weather Station
Location: Charlevoix, MI
Elevation: 750 ft
Nearby Weather Stations
Active Advisory: Winter Weather Advisory

Elev 750 ft 45.26 °N, 85.22 °W | Updated 5 seconds ago

Light Snow
Light Snow
19.7 °F
Feels Like 20 °F
N
3.0
Wind Variable Wind from North
Gusts 16.0 mph

Today
High -- | Low -- °F
--% Chance of Precip.
Yesterday
High -- | Low -- °F
Precip. -- in
Pressure 29.77 in
Visibility 1.8 miles
Clouds Overcast 1300 ft
Windchill 20 °F
Dew Point 18 °F
Humidity 91%
Rainfall 0.00 in
Snow Depth Not available.
7:51 AM 5:59 PM
Waxing Crescent, 3% visible
METAR KCVX 100114Z AUTO 33015G19KT 1 3/4SM -SN OVC013 M06/M08 A2977 RMK AO2 T10581078
Pressure 29.77 in
Visibility 1.8 miles
Clouds Overcast 1300 ft
Windchill 20 °F
Dew Point 18 °F
Humidity 91%
Rainfall 0.00 in
Snow Depth Not available.
7:51 AM 5:59 PM
Waxing Crescent, 3% visible
METAR KCVX 100114Z AUTO 33015G19KT 1 3/4SM -SN OVC013 M06/M08 A2977 RMK AO2 T10581078

10-Day Weather Forecast

Almanac

Astronomy

Feb. 09, 2016 Rise Set
Actual Time
Civil Twilight
Nautical Twilight
Astronomical Twilight
Moon
Length of Visible Light
Length of Day
Tomorrow will be .
, % of the Moon is Illuminated

Today's Extremes

State Highs State Lows

Community

WunderPhotos

Upload Photos

1,891,752 photos uploaded!

WunderBlog® & News

Nearby

Air Quality

  Air Quality AQ Index Pollutant
Not available.

Snow Depth

Station Depth Elevation

Earthquake Activity

City Distance Mag. Time & Date
Minimum magnitude displayed is 2.5.

Coastal Water Temperatures

Place Temperature

Stations

Nearby Weather Stations

Station Location Temp. Windchill Dew Point Humidity Wind Precip. Elev Updated Type
                   

Watches & Warnings

Winter Weather Advisory
Issued: 3:40 PM EST Feb. 9, 2016 – National Weather Service

... Winter Weather Advisory remains in effect until 6 PM EST
Wednesday...

* lake effect snow showers will gradually increase in coverage and
intensity across the advisory area through this evening.

* Snowfall rates of one to two inches per hour are possible within
the heaviest lake effect snow bands.

* Snow ratios will average 20:1... resulting in a dry snow which
will be more likely to blow around.

* Total snow accumulations of 3 to 6 inches are expected through
the day on Wednesday. Locally higher amounts are possible where
snow showers persist.

* Significant reductions in visibility are expected. Wind gusts of
15 to 25 mph will result in blowing and drifting snow.

* Travel will be hazardous... including during the morning commute
on Wednesday.

Precautionary/preparedness actions...

A Winter Weather Advisory for snow means periods of snow will
cause travel difficulties. Be prepared for snow covered roads and
limited visibilities... and use caution while driving. For the
latest Road conditions... go to the mdot website at Michigan.Gov.

Jk